Time;durP1;ratioP1;P1;durP2;ratioP2;P2;SDS_P1;SDS_P2;PMS_P1;PMS_P2;Temp;Humidity;BMP_temperature;BMP_pressure;BME280_temperature;BME280_humidity;BME280_pressure;Samples;Min_cycle;Max_cycle;Signal;HPM_P1;HPM_P2
2023/12/04 00:00:25;;;;;;;37.20;17.80;;;0.30;99.90;;;;;;5038889;28;20461;-77
2023/12/04 00:02:51;;;;;;;30.90;17.13;;;0.30;99.90;;;;;;5055796;28;20449;-78
2023/12/04 00:05:17;;;;;;;96.97;66.60;;;0.30;99.90;;;;;;5035869;28;20497;-78
2023/12/04 00:07:42;;;;;;;37.78;17.55;;;0.30;99.90;;;;;;5051018;28;20487;-77
2023/12/04 00:10:08;;;;;;;97.68;66.55;;;0.30;99.90;;;;;;5055408;28;20028;-78
2023/12/04 00:12:34;;;;;;;113.05;73.78;;;0.30;99.90;;;;;;5055551;28;20127;-77
2023/12/04 00:14:59;;;;;;;34.22;17.67;;;0.30;99.90;;;;;;5003062;28;20037;-78
2023/12/04 00:17:25;;;;;;;27.75;16.25;;;0.30;99.90;;;;;;5043115;28;20040;-77
2023/12/04 00:19:50;;;;;;;92.28;65.97;;;0.30;99.90;;;;;;5038396;28;20072;-77
2023/12/04 00:22:16;;;;;;;100.63;69.32;;;0.30;99.90;;;;;;5018722;28;20037;-77
2023/12/04 00:24:41;;;;;;;35.70;16.60;;;0.30;99.90;;;;;;5034502;28;20041;-77
2023/12/04 00:27:07;;;;;;;110.40;70.10;;;0.30;99.90;;;;;;5035422;28;20040;-77
2023/12/04 00:29:32;;;;;;;34.78;16.38;;;0.30;99.90;;;;;;5028807;28;20041;-77
2023/12/04 00:31:58;;;;;;;88.95;63.92;;;0.30;99.90;;;;;;5050405;28;20032;-77
2023/12/04 00:34:23;;;;;;;36.28;17.52;;;0.30;99.90;;;;;;5033049;28;20510;-77
2023/12/04 00:36:49;;;;;;;85.38;65.00;;;0.30;99.90;;;;;;5015154;28;20045;-77
2023/12/04 00:39:15;;;;;;;34.35;17.45;;;0.30;99.90;;;;;;4998808;28;20136;-77
2023/12/04 00:41:41;;;;;;;92.78;66.55;;;0.30;99.90;;;;;;5014200;28;20049;-76
2023/12/04 00:44:07;;;;;;;33.28;16.83;;;0.30;99.90;;;;;;5021847;28;20434;-77
2023/12/04 00:46:32;;;;;;;33.47;17.50;;;0.30;99.90;;;;;;5015145;28;20399;-77
2023/12/04 00:48:58;;;;;;;35.85;17.77;;;0.30;99.90;;;;;;5014877;28;20033;-77
2023/12/04 00:51:23;;;;;;;86.60;63.05;;;0.30;99.90;;;;;;5005470;28;20098;-77
2023/12/04 00:53:49;;;;;;;91.72;64.15;;;0.30;99.90;;;;;;5030130;28;20036;-77
2023/12/04 00:56:15;;;;;;;86.72;63.65;;;0.30;99.90;;;;;;5034549;28;20091;-79
2023/12/04 00:58:40;;;;;;;112.03;70.05;;;0.30;99.90;;;;;;5032513;28;20044;-77
2023/12/04 01:01:06;;;;;;;99.10;64.60;;;0.30;99.90;;;;;;5052159;28;20036;-77
2023/12/04 01:03:33;;;;;;;34.38;17.52;;;0.40;99.90;;;;;;5033948;28;20033;-76
2023/12/04 01:05:59;;;;;;;29.13;16.25;;;0.30;99.90;;;;;;5050524;28;20033;-77
2023/12/04 01:08:25;;;;;;;30.75;15.63;;;0.30;99.90;;;;;;5051042;28;20086;-77
2023/12/04 01:10:50;;;;;;;84.22;60.33;;;0.30;99.90;;;;;;5034361;28;20041;-77
2023/12/04 01:13:16;;;;;;;93.63;60.47;;;0.30;99.90;;;;;;5030651;28;20037;-77
2023/12/04 01:15:42;;;;;;;94.55;62.55;;;0.30;99.90;;;;;;4998053;28;20107;-77
2023/12/04 01:18:08;;;;;;;43.28;18.88;;;0.30;99.90;;;;;;5014364;28;20079;-77
2023/12/04 01:20:34;;;;;;;107.47;66.95;;;0.30;99.90;;;;;;5014657;28;20693;-77
2023/12/04 01:22:59;;;;;;;81.78;59.17;;;0.30;99.90;;;;;;5014176;28;20037;-77
2023/12/04 01:25:25;;;;;;;34.30;16.90;;;0.40;99.90;;;;;;5034123;28;20484;-78
2023/12/04 01:27:51;;;;;;;26.90;15.00;;;0.30;99.90;;;;;;5035224;28;20407;-77
2023/12/04 01:30:16;;;;;;;36.92;15.95;;;0.30;99.90;;;;;;5037191;28;20040;-77
2023/12/04 01:32:42;;;;;;;77.90;59.17;;;0.30;99.90;;;;;;5054149;28;20407;-78
2023/12/04 01:35:08;;;;;;;80.22;58.92;;;0.30;99.90;;;;;;5034698;28;20040;-77
2023/12/04 01:37:33;;;;;;;34.70;16.90;;;0.40;99.90;;;;;;5028835;28;20040;-78
2023/12/04 01:39:59;;;;;;;104.95;67.30;;;0.30;99.90;;;;;;5049211;28;20486;-78
2023/12/04 01:42:24;;;;;;;39.65;17.73;;;0.30;99.90;;;;;;5053754;28;20457;-78
2023/12/04 01:44:50;;;;;;;85.35;62.25;;;0.40;99.90;;;;;;5001687;28;20044;-77
2023/12/04 01:47:17;;;;;;;38.30;16.13;;;0.40;99.90;;;;;;5014345;28;20037;-78
2023/12/04 01:49:43;;;;;;;88.03;62.22;;;0.40;99.90;;;;;;5014109;28;20084;-78
2023/12/04 01:52:09;;;;;;;37.72;18.33;;;0.30;99.90;;;;;;5026159;28;20072;-77
2023/12/04 01:54:35;;;;;;;30.63;15.70;;;0.40;99.90;;;;;;5029140;28;20482;-78
2023/12/04 01:57:03;;;;;;;125.75;68.22;;;0.30;99.90;;;;;;5053548;28;20040;-78
2023/12/04 01:59:28;;;;;;;34.00;16.35;;;0.40;99.90;;;;;;5053786;28;20379;-78
2023/12/04 02:01:54;;;;;;;102.45;64.45;;;0.40;99.90;;;;;;5045604;28;20112;-78
2023/12/04 02:04:21;;;;;;;88.10;61.30;;;0.40;99.90;;;;;;5033624;28;20037;-78
2023/12/04 02:06:46;;;;;;;83.78;59.20;;;0.40;99.90;;;;;;5034157;28;21097;-78
2023/12/04 02:09:13;;;;;;;91.07;61.50;;;0.40;99.90;;;;;;5036887;28;20036;-78
2023/12/04 02:11:39;;;;;;;100.32;63.15;;;0.40;99.90;;;;;;5042211;28;20041;-78
2023/12/04 02:14:05;;;;;;;35.80;16.42;;;0.40;99.90;;;;;;5013532;28;20080;-78
2023/12/04 02:16:34;;;;;;;93.25;61.35;;;0.40;99.90;;;;;;4998371;28;20559;-78
2023/12/04 02:19:00;;;;;;;104.63;63.33;;;0.40;99.90;;;;;;5033623;28;20041;-78
2023/12/04 02:21:26;;;;;;;31.40;16.90;;;0.40;99.90;;;;;;5032000;28;20048;-78
2023/12/04 02:23:52;;;;;;;33.40;14.80;;;0.40;99.90;;;;;;5029332;28;20056;-78
2023/12/04 02:26:22;;;;;;;33.47;15.88;;;0.40;99.90;;;;;;5033466;28;20033;-78
2023/12/04 02:28:55;;;;;;;69.70;53.10;;;0.30;99.90;;;;;;5032031;28;20525;-78
2023/12/04 02:31:23;;;;;;;62.42;50.55;;;0.40;99.90;;;;;;5035901;28;20048;-78
2023/12/04 02:33:52;;;;;;;76.13;53.92;;;0.40;99.90;;;;;;5048528;28;20087;-78
2023/12/04 02:36:20;;;;;;;35.85;16.65;;;0.40;99.90;;;;;;5050129;28;20045;-78
2023/12/04 02:38:46;;;;;;;76.45;53.83;;;0.40;99.90;;;;;;5015163;28;20087;-78
2023/12/04 02:41:11;;;;;;;29.00;15.57;;;0.40;99.90;;;;;;4997279;28;20041;-78
2023/12/04 02:43:37;;;;;;;87.18;56.40;;;0.40;99.90;;;;;;5013619;28;20095;-78
2023/12/04 02:46:03;;;;;;;66.88;50.67;;;0.40;99.90;;;;;;5013525;28;20033;-78
2023/12/04 02:48:28;;;;;;;75.25;53.60;;;0.40;99.90;;;;;;5043793;28;20068;-79
2023/12/04 02:50:54;;;;;;;83.57;54.83;;;0.40;99.90;;;;;;5053521;28;20044;-79
2023/12/04 02:53:19;;;;;;;30.30;16.58;;;0.40;99.90;;;;;;5013891;28;20041;-79
2023/12/04 02:55:45;;;;;;;29.20;13.25;;;0.40;99.90;;;;;;5007790;28;20463;-78
2023/12/04 02:58:11;;;;;;;28.48;12.50;;;0.40;99.90;;;;;;5023624;28;20479;-78
2023/12/04 03:00:36;;;;;;;32.50;16.23;;;0.40;99.90;;;;;;5023828;28;20064;-79
2023/12/04 03:03:02;;;;;;;80.95;52.63;;;0.40;99.90;;;;;;5037543;28;20128;-79
2023/12/04 03:05:27;;;;;;;71.85;51.03;;;0.40;99.90;;;;;;5055765;28;20068;-79
2023/12/04 03:07:53;;;;;;;73.28;51.75;;;0.40;99.90;;;;;;5045444;28;20041;-78
2023/12/04 03:10:18;;;;;;;79.13;53.72;;;0.40;99.90;;;;;;5036760;28;20045;-79
2023/12/04 03:12:44;;;;;;;85.38;54.50;;;0.40;99.90;;;;;;5036105;28;20037;-79
2023/12/04 03:15:11;;;;;;;30.05;15.10;;;0.40;99.90;;;;;;5030421;28;20127;-78
2023/12/04 03:17:37;;;;;;;31.98;16.15;;;0.40;99.90;;;;;;5049209;28;20048;-79
2023/12/04 03:20:04;;;;;;;63.08;48.67;;;0.40;99.90;;;;;;5053125;28;20041;-79
2023/12/04 03:22:30;;;;;;;63.03;48.70;;;0.40;99.90;;;;;;5023946;28;20411;-80
2023/12/04 03:24:55;;;;;;;27.20;13.52;;;0.40;99.90;;;;;;5020110;28;20039;-79
2023/12/04 03:27:21;;;;;;;75.53;51.13;;;0.40;99.90;;;;;;5031473;28;20080;-78
2023/12/04 03:29:46;;;;;;;29.42;14.00;;;0.40;99.90;;;;;;5000208;28;20068;-78
2023/12/04 03:32:12;;;;;;;71.40;49.50;;;0.40;99.90;;;;;;5043169;28;20426;-78
2023/12/04 03:34:37;;;;;;;70.35;48.53;;;0.40;99.90;;;;;;5053341;28;20036;-78
2023/12/04 03:37:03;;;;;;;31.15;14.93;;;0.40;99.90;;;;;;5035949;28;20032;-79
2023/12/04 03:39:28;;;;;;;32.05;14.32;;;0.40;99.90;;;;;;5036321;28;20094;-78
2023/12/04 03:41:54;;;;;;;56.67;45.17;;;0.40;99.90;;;;;;5035969;28;20048;-79
2023/12/04 03:44:20;;;;;;;69.40;50.22;;;0.40;99.90;;;;;;5035875;28;20037;-78
2023/12/04 03:46:45;;;;;;;61.13;44.50;;;0.40;99.90;;;;;;5028967;28;20033;-79
2023/12/04 03:49:11;;;;;;;52.33;42.47;;;0.40;99.90;;;;;;5051882;28;20036;-79
2023/12/04 03:51:36;;;;;;;30.10;14.88;;;0.40;99.90;;;;;;5048937;28;20128;-79
2023/12/04 03:54:02;;;;;;;22.80;11.63;;;0.40;99.90;;;;;;5035395;28;20094;-78
2023/12/04 03:56:27;;;;;;;71.47;48.40;;;0.40;99.90;;;;;;5035628;28;20114;-78
2023/12/04 03:58:53;;;;;;;73.07;48.45;;;0.40;99.90;;;;;;5018486;28;20392;-78
2023/12/04 04:01:18;;;;;;;31.63;14.30;;;0.40;99.90;;;;;;5028624;28;20106;-79
2023/12/04 04:03:45;;;;;;;27.73;14.55;;;0.40;99.90;;;;;;5055312;28;20474;-79
2023/12/04 04:06:11;;;;;;;56.17;43.85;;;0.40;99.90;;;;;;5037763;28;20042;-78
2023/12/04 04:08:37;;;;;;;59.17;44.40;;;0.40;99.90;;;;;;5030846;28;20040;-79
2023/12/04 04:11:02;;;;;;;25.60;12.80;;;0.40;99.90;;;;;;5035518;28;20526;-78
2023/12/04 04:13:28;;;;;;;26.17;13.73;;;0.40;99.90;;;;;;5051901;28;20040;-78
2023/12/04 04:15:53;;;;;;;51.80;40.88;;;0.40;99.90;;;;;;5038748;28;20048;-79
2023/12/04 04:18:19;;;;;;;53.47;41.45;;;0.40;99.90;;;;;;5041711;28;20134;-78
2023/12/04 04:20:45;;;;;;;50.10;41.17;;;0.40;99.90;;;;;;5035207;28;20048;-78
2023/12/04 04:23:10;;;;;;;62.75;45.17;;;0.40;99.90;;;;;;5034768;28;20036;-78
2023/12/04 04:25:36;;;;;;;55.45;43.38;;;0.40;99.90;;;;;;5035092;28;20051;-78
2023/12/04 04:28:01;;;;;;;29.58;13.60;;;0.40;99.90;;;;;;5028405;28;20036;-78
2023/12/04 04:30:27;;;;;;;24.98;12.07;;;0.40;99.90;;;;;;5021420;28;20087;-78
2023/12/04 04:32:52;;;;;;;26.50;11.98;;;0.40;99.90;;;;;;5037416;28;20033;-78
2023/12/04 04:35:18;;;;;;;24.02;11.95;;;0.40;99.90;;;;;;5054707;28;20089;-78
2023/12/04 04:37:43;;;;;;;57.17;43.72;;;0.40;99.90;;;;;;5029920;28;20571;-78
2023/12/04 04:40:09;;;;;;;50.38;41.40;;;0.40;99.90;;;;;;5044093;28;20044;-78
2023/12/04 04:42:35;;;;;;;52.17;40.55;;;0.40;99.90;;;;;;5054967;28;20039;-78
2023/12/04 04:45:00;;;;;;;27.90;13.77;;;0.40;99.90;;;;;;5038150;28;20132;-78
2023/12/04 04:47:26;;;;;;;60.58;43.03;;;0.40;99.90;;;;;;5048659;28;20056;-78
2023/12/04 04:49:51;;;;;;;44.30;38.28;;;0.40;99.90;;;;;;5034944;28;20029;-78
2023/12/04 04:52:17;;;;;;;41.47;36.55;;;0.40;99.90;;;;;;5034014;28;20044;-77
2023/12/04 04:54:42;;;;;;;22.83;12.80;;;0.40;99.90;;;;;;5033081;28;20049;-78
2023/12/04 04:57:08;;;;;;;28.67;12.75;;;0.40;99.90;;;;;;5034571;28;20112;-78
2023/12/04 04:59:34;;;;;;;23.38;11.25;;;0.40;99.90;;;;;;5051278;28;20406;-78
2023/12/04 05:01:59;;;;;;;46.92;39.00;;;0.40;99.90;;;;;;5034485;28;20080;-78
2023/12/04 05:04:25;;;;;;;19.45;11.00;;;0.40;99.90;;;;;;5034387;28;20044;-78
2023/12/04 05:06:50;;;;;;;20.00;11.15;;;0.40;99.90;;;;;;5033763;28;20033;-78
2023/12/04 05:09:16;;;;;;;51.90;40.38;;;0.40;99.90;;;;;;5045035;28;20037;-78
2023/12/04 05:11:41;;;;;;;36.38;32.25;;;0.40;99.90;;;;;;5037600;28;20048;-78
2023/12/04 05:14:07;;;;;;;49.00;39.72;;;0.40;99.90;;;;;;5037615;28;20052;-78
2023/12/04 05:16:32;;;;;;;47.47;38.92;;;0.40;99.90;;;;;;5054221;28;20040;-78
2023/12/04 05:18:58;;;;;;;24.08;12.82;;;0.40;99.90;;;;;;5003108;28;20034;-78
2023/12/04 05:21:24;;;;;;;20.77;10.52;;;0.40;99.90;;;;;;5024039;28;20446;-78
2023/12/04 05:23:49;;;;;;;19.98;11.25;;;0.40;99.90;;;;;;5044351;28;20068;-78
2023/12/04 05:26:15;;;;;;;48.85;38.33;;;0.40;99.90;;;;;;5034084;28;20095;-78
2023/12/04 05:28:40;;;;;;;41.90;36.28;;;0.40;99.90;;;;;;5020623;28;20033;-78
2023/12/04 05:31:06;;;;;;;45.45;35.25;;;0.40;99.90;;;;;;5019018;28;20037;-77
2023/12/04 05:33:31;;;;;;;43.58;35.70;;;0.40;99.90;;;;;;5033799;28;20041;-78
2023/12/04 05:35:57;;;;;;;24.13;12.27;;;0.40;99.90;;;;;;5033962;28;20140;-78
2023/12/04 05:38:23;;;;;;;19.52;10.50;;;0.40;99.90;;;;;;5028479;28;20081;-78
2023/12/04 05:40:48;;;;;;;41.13;34.20;;;0.40;99.90;;;;;;5050975;28;20071;-78
2023/12/04 05:43:14;;;;;;;22.00;10.63;;;0.40;99.90;;;;;;5033952;28;20045;-77
2023/12/04 05:45:40;;;;;;;21.45;10.63;;;0.40;99.90;;;;;;5002973;28;20484;-78
2023/12/04 05:48:05;;;;;;;18.55;10.18;;;0.40;99.90;;;;;;5014236;28;20392;-78
2023/12/04 05:50:31;;;;;;;40.03;33.45;;;0.30;99.90;;;;;;4997753;28;20550;-78
2023/12/04 05:52:57;;;;;;;42.10;34.92;;;0.40;99.90;;;;;;5014077;28;20041;-78
2023/12/04 05:55:22;;;;;;;38.90;33.85;;;0.40;99.90;;;;;;5031287;23;20049;-75
2023/12/04 05:57:48;;;;;;;41.45;34.65;;;0.40;99.90;;;;;;4993425;28;20056;-75
2023/12/04 06:00:14;;;;;;;20.88;11.18;;;0.30;99.90;;;;;;4985775;28;20034;-76
2023/12/04 06:02:42;;;;;;;40.90;34.67;;;0.20;99.90;;;;;;4978216;28;20038;-75
2023/12/04 06:05:08;;;;;;;45.70;37.17;;;0.30;99.90;;;;;;4986664;28;20042;-75
2023/12/04 06:07:35;;;;;;;37.80;33.67;;;0.30;99.90;;;;;;4991759;28;20108;-75
2023/12/04 06:10:06;;;;;;;37.25;32.72;;;0.30;99.90;;;;;;4979655;28;20480;-76
2023/12/04 06:12:38;;;;;;;18.90;9.80;;;0.30;99.90;;;;;;4974871;28;20120;-78
2023/12/04 06:15:04;;;;;;;16.98;9.35;;;0.30;99.90;;;;;;4980656;28;20064;-77
2023/12/04 06:17:33;;;;;;;18.10;10.43;;;0.30;99.90;;;;;;4975779;28;20042;-77
2023/12/04 06:19:58;;;;;;;39.75;34.85;;;0.20;99.90;;;;;;4968131;28;20053;-75
2023/12/04 06:22:24;;;;;;;17.55;9.70;;;0.30;99.90;;;;;;4993012;28;20046;-76
2023/12/04 06:24:53;;;;;;;39.10;33.90;;;0.30;99.90;;;;;;4974016;28;20085;-77
2023/12/04 06:27:22;;;;;;;34.30;30.67;;;0.30;99.90;;;;;;4972967;28;20096;-77
2023/12/04 06:29:50;;;;;;;36.83;32.55;;;0.30;99.90;;;;;;4983185;28;20083;-73
2023/12/04 06:32:18;;;;;;;30.27;27.02;;;0.30;99.90;;;;;;4981977;28;20115;-76
2023/12/04 06:34:47;;;;;;;34.83;30.75;;;0.30;99.90;;;;;;4977334;28;20045;-76
2023/12/04 06:37:13;;;;;;;34.00;30.27;;;0.30;99.90;;;;;;4983482;28;20547;-76
2023/12/04 06:39:40;;;;;;;22.75;9.88;;;0.30;99.90;;;;;;4978556;28;21332;-75
2023/12/04 06:42:08;;;;;;;18.10;10.50;;;0.30;99.90;;;;;;4982797;28;20046;-74
2023/12/04 06:44:34;;;;;;;32.25;28.90;;;0.20;99.90;;;;;;4985645;28;20080;-74
2023/12/04 06:47:01;;;;;;;27.52;24.77;;;0.30;99.90;;;;;;4987017;28;20487;-74
2023/12/04 06:49:30;;;;;;;18.27;8.70;;;0.30;99.90;;;;;;4991053;28;20041;-74
2023/12/04 06:51:56;;;;;;;31.23;27.95;;;0.20;99.90;;;;;;4997849;28;20403;-75
2023/12/04 06:54:44;;;;;;;32.97;29.50;;;0.30;99.90;;;;;;5014868;28;20044;-81
2023/12/04 06:57:14;;;;;;;32.63;29.17;;;0.30;99.90;;;;;;4964045;28;20054;-80
2023/12/04 07:00:03;;;;;;;16.88;10.00;;;0.30;99.90;;;;;;4981374;28;20040;-78
2023/12/04 07:02:52;;;;;;;18.50;9.80;;;0.30;99.90;;;;;;5002473;28;20085;-77
2023/12/04 07:05:34;;;;;;;18.83;9.73;;;0.20;99.90;;;;;;4978712;28;20468;-78
2023/12/04 07:08:18;;;;;;;16.90;9.95;;;0.20;99.90;;;;;;4976979;28;20030;-78
2023/12/04 07:11:15;;;;;;;;;;;;;;;;;;;;;
2023/12/04 07:14:23;;;;;;;;;;;;;;;;;;;;;
2023/12/04 07:17:22;;;;;;;17.45;9.90;;;0.30;99.90;;;;;;4967000;28;20035;-76
2023/12/04 07:19:57;;;;;;;28.45;25.60;;;0.20;99.90;;;;;;4949407;28;20051;-76
2023/12/04 07:22:28;;;;;;;15.07;8.18;;;0.30;99.90;;;;;;4963949;28;20054;-78
2023/12/04 07:24:57;;;;;;;15.45;8.18;;;0.30;99.90;;;;;;4966029;28;20173;-78
2023/12/04 07:27:30;;;;;;;30.45;27.25;;;0.30;99.90;;;;;;4979943;28;20045;-76
2023/12/04 07:30:01;;;;;;;31.02;27.80;;;0.30;99.90;;;;;;4980548;28;20507;-76
2023/12/04 07:32:36;;;;;;;16.80;8.80;;;0.40;99.90;;;;;;4981161;28;20392;-76
2023/12/04 07:35:05;;;;;;;28.15;25.35;;;0.30;99.90;;;;;;4980318;28;20048;-77
2023/12/04 07:37:36;;;;;;;16.27;9.52;;;0.30;99.90;;;;;;4980578;28;20059;-76
2023/12/04 07:40:08;;;;;;;26.05;23.35;;;0.30;99.90;;;;;;4980886;28;20042;-76
2023/12/04 07:42:39;;;;;;;18.67;9.70;;;0.30;99.90;;;;;;4980747;28;20143;-77
2023/12/04 07:45:10;;;;;;;12.90;7.75;;;0.30;99.90;;;;;;4980000;28;20273;-76
2023/12/04 07:47:36;;;;;;;16.00;8.52;;;0.30;99.90;;;;;;4980330;28;20068;-76
2023/12/04 07:50:05;;;;;;;17.85;8.55;;;0.30;99.90;;;;;;4979978;28;20132;-76
2023/12/04 07:52:39;;;;;;;24.60;22.25;;;0.30;99.90;;;;;;4980965;28;20037;-76
2023/12/04 07:55:05;;;;;;;25.15;22.70;;;0.30;99.90;;;;;;4979980;28;20467;-76
2023/12/04 07:57:34;;;;;;;23.38;21.00;;;0.30;99.90;;;;;;4979615;28;20131;-76
2023/12/04 08:00:12;;;;;;;23.92;21.63;;;0.40;99.90;;;;;;4981359;28;20034;-76
2023/12/04 08:02:37;;;;;;;15.52;8.38;;;0.40;99.90;;;;;;4980055;28;20038;-76
2023/12/04 08:05:08;;;;;;;15.95;8.27;;;0.40;99.90;;;;;;4979949;28;20042;-77
2023/12/04 08:07:37;;;;;;;15.20;8.30;;;0.30;99.90;;;;;;4979808;28;20149;-76
2023/12/04 08:10:04;;;;;;;21.70;19.70;;;0.30;99.90;;;;;;4979949;28;20045;-76
2023/12/04 08:12:35;;;;;;;23.02;20.73;;;0.30;99.90;;;;;;4979465;28;20321;-76
2023/12/04 08:15:14;;;;;;;14.80;6.90;;;0.40;99.90;;;;;;4979967;28;20141;-76
2023/12/04 08:17:48;;;;;;;21.63;19.55;;;0.40;99.90;;;;;;4979601;28;20281;-76
2023/12/04 08:20:22;;;;;;;12.15;6.97;;;0.40;99.90;;;;;;4979938;28;20049;-78
2023/12/04 08:22:51;;;;;;;11.07;6.90;;;0.40;99.90;;;;;;4978185;28;20064;-76
2023/12/04 08:25:28;;;;;;;13.35;7.15;;;0.40;99.90;;;;;;4980964;28;20049;-76
2023/12/04 08:28:03;;;;;;;25.60;22.88;;;0.40;99.90;;;;;;4995348;28;20034;-76
2023/12/04 08:30:38;;;;;;;12.77;7.57;;;0.40;99.90;;;;;;4979205;28;20073;-76
2023/12/04 08:33:20;;;;;;;24.02;21.73;;;0.40;99.90;;;;;;4997010;28;20088;-76
2023/12/04 08:35:57;;;;;;;22.55;20.25;;;0.40;99.90;;;;;;4979929;28;20037;-76
2023/12/04 08:38:30;;;;;;;23.27;21.00;;;0.40;99.90;;;;;;4979589;28;20404;-77
2023/12/04 08:40:59;;;;;;;22.10;19.80;;;0.40;99.90;;;;;;4979601;28;20187;-76
2023/12/04 08:43:28;;;;;;;12.48;7.15;;;0.40;99.90;;;;;;4978774;28;20048;-76
2023/12/04 08:45:55;;;;;;;11.88;7.35;;;0.50;99.90;;;;;;4979331;28;20439;-76
2023/12/04 08:48:23;;;;;;;22.55;20.33;;;0.50;99.90;;;;;;4979517;28;20412;-76
2023/12/04 08:51:05;;;;;;;20.85;18.73;;;0.50;99.90;;;;;;4979106;28;20048;-76
2023/12/04 08:53:36;;;;;;;21.80;19.65;;;0.60;99.90;;;;;;4979202;28;20045;-76
2023/12/04 08:56:10;;;;;;;12.20;7.07;;;0.60;99.90;;;;;;4979261;28;20042;-77
2023/12/04 08:58:37;;;;;;;20.80;18.80;;;0.60;99.90;;;;;;4979057;28;20038;-76
2023/12/04 09:01:05;;;;;;;20.55;18.55;;;0.70;99.90;;;;;;4978509;28;20089;-76
2023/12/04 09:03:34;;;;;;;21.75;19.58;;;0.70;99.90;;;;;;4978037;28;20099;-78
2023/12/04 09:06:02;;;;;;;9.90;6.47;;;0.80;99.90;;;;;;4978316;28;20559;-77
2023/12/04 09:08:32;;;;;;;13.43;7.38;;;0.80;99.90;;;;;;4979107;28;20038;-76
2023/12/04 09:10:59;;;;;;;18.58;16.88;;;0.80;99.90;;;;;;4978802;28;20046;-76
2023/12/04 09:13:25;;;;;;;18.48;16.77;;;0.90;99.90;;;;;;4978353;28;20050;-76
2023/12/04 09:15:52;;;;;;;17.25;15.55;;;1.00;99.90;;;;;;4978393;28;20037;-76
2023/12/04 09:18:18;;;;;;;18.15;16.42;;;1.00;99.90;;;;;;4978435;28;20381;-76
2023/12/04 09:20:44;;;;;;;16.45;14.82;;;1.00;99.90;;;;;;4978841;28;20053;-77
2023/12/04 09:23:13;;;;;;;18.25;16.55;;;1.00;99.90;;;;;;4978746;28;20037;-77
2023/12/04 09:25:43;;;;;;;19.75;17.88;;;1.10;99.90;;;;;;4978729;28;20069;-76
2023/12/04 09:28:12;;;;;;;12.43;6.63;;;1.20;99.90;;;;;;4978418;28;20129;-77
2023/12/04 09:30:39;;;;;;;19.15;17.25;;;1.20;99.90;;;;;;4959041;28;20046;-76
2023/12/04 09:33:06;;;;;;;21.02;18.98;;;1.20;99.90;;;;;;4958673;28;20085;-77
2023/12/04 09:35:35;;;;;;;17.08;15.38;;;1.30;99.90;;;;;;4958690;28;20053;-76
2023/12/04 09:38:03;;;;;;;18.05;16.30;;;1.30;99.90;;;;;;4958878;28;20409;-77
2023/12/04 09:40:41;;;;;;;17.40;15.70;;;1.40;99.90;;;;;;4959885;28;20105;-76
2023/12/04 09:43:07;;;;;;;16.65;15.10;;;1.40;99.90;;;;;;4958559;28;20043;-77
2023/12/04 09:45:34;;;;;;;17.42;15.82;;;1.40;99.90;;;;;;4958711;28;20092;-77
2023/12/04 09:48:02;;;;;;;19.10;17.33;;;1.40;99.90;;;;;;4959615;28;20049;-76
2023/12/04 09:50:31;;;;;;;17.20;15.60;;;1.40;99.90;;;;;;4958716;28;20301;-76
2023/12/04 09:53:01;;;;;;;17.48;15.70;;;1.40;99.90;;;;;;4958638;28;20034;-77
2023/12/04 09:55:28;;;;;;;11.63;6.95;;;1.40;99.90;;;;;;4958200;28;20488;-76
2023/12/04 09:57:58;;;;;;;17.63;15.82;;;1.40;99.90;;;;;;4975059;28;20046;-76
2023/12/04 10:00:27;;;;;;;18.58;16.60;;;1.40;99.90;;;;;;4959083;28;20042;-77
2023/12/04 10:02:56;;;;;;;16.60;15.07;;;1.50;99.90;;;;;;4958889;28;20053;-77
2023/12/04 10:05:30;;;;;;;16.35;14.85;;;1.50;99.90;;;;;;4958658;28;20038;-76
2023/12/04 10:08:02;;;;;;;17.38;15.77;;;1.50;99.90;;;;;;4958672;28;20489;-77
2023/12/04 10:10:33;;;;;;;9.20;5.93;;;1.60;99.90;;;;;;4958528;28;20038;-77
2023/12/04 10:13:04;;;;;;;12.23;6.40;;;1.60;99.90;;;;;;4959528;28;20277;-77
2023/12/04 10:15:31;;;;;;;15.70;14.23;;;1.60;99.90;;;;;;4962748;28;20034;-77
2023/12/04 10:17:57;;;;;;;17.02;15.40;;;1.60;99.90;;;;;;4962550;28;20069;-76
2023/12/04 10:20:26;;;;;;;15.85;14.35;;;1.70;99.90;;;;;;4962535;28;20084;-77
2023/12/04 10:22:59;;;;;;;16.45;14.93;;;1.70;99.90;;;;;;4962050;28;20042;-79
2023/12/04 10:25:30;;;;;;;17.48;15.77;;;1.70;99.90;;;;;;4962296;28;20034;-77
2023/12/04 10:28:25;;;;;;;16.05;14.55;;;1.70;99.90;;;;;;4963746;28;20042;-77
2023/12/04 10:31:00;;;;;;;14.63;13.23;;;1.70;99.90;;;;;;4962818;28;20050;-77
2023/12/04 10:33:37;;;;;;;15.90;14.40;;;1.80;99.90;;;;;;4962896;28;20042;-77
2023/12/04 10:36:12;;;;;;;15.40;13.93;;;1.80;99.90;;;;;;4956744;28;20436;-77
2023/12/04 10:38:40;;;;;;;15.10;13.68;;;1.60;99.90;;;;;;4961005;28;20050;-77
2023/12/04 10:41:16;;;;;;;15.57;14.18;;;1.70;99.90;;;;;;4962125;28;20043;-77
2023/12/04 10:43:51;;;;;;;15.32;13.82;;;1.80;99.90;;;;;;4961972;28;20038;-78
2023/12/04 10:46:26;;;;;;;16.27;14.68;;;1.80;99.90;;;;;;4961438;28;20133;-77
2023/12/04 10:48:59;;;;;;;14.88;13.55;;;1.80;99.90;;;;;;4962285;28;20131;-77
2023/12/04 10:51:51;;;;;;;15.25;13.80;;;1.80;99.90;;;;;;4962033;28;20161;-77
2023/12/04 10:54:20;;;;;;;16.75;15.13;;;1.80;99.90;;;;;;4961875;28;20054;-77
2023/12/04 10:56:51;;;;;;;14.73;13.32;;;1.80;99.90;;;;;;4961419;28;20042;-77
2023/12/04 10:59:32;;;;;;;15.57;14.07;;;1.80;99.90;;;;;;4962151;28;20526;-77
2023/12/04 11:02:04;;;;;;;16.42;14.93;;;1.90;99.90;;;;;;4961626;28;20046;-78
2023/12/04 11:04:38;;;;;;;14.90;13.60;;;1.80;99.90;;;;;;4961745;28;20109;-77
2023/12/04 11:07:18;;;;;;;15.48;13.98;;;1.90;99.90;;;;;;4961440;28;20046;-78
2023/12/04 11:10:00;;;;;;;14.43;13.10;;;1.90;99.90;;;;;;4961967;28;20056;-78
2023/12/04 11:12:38;;;;;;;16.05;14.55;;;1.80;99.90;;;;;;4961805;28;20050;-79
2023/12/04 11:15:20;;;;;;;14.88;13.48;;;1.90;99.90;;;;;;4961461;28;20330;-78
2023/12/04 11:18:08;;;;;;;14.57;13.18;;;1.80;99.90;;;;;;4962127;28;20042;-79
2023/12/04 11:20:57;;;;;;;15.40;14.00;;;2.00;99.90;;;;;;4961565;28;20035;-77
2023/12/04 11:23:27;;;;;;;14.38;13.02;;;2.00;99.90;;;;;;4976091;28;20053;-77
2023/12/04 11:25:59;;;;;;;14.32;13.02;;;2.00;99.90;;;;;;4960464;28;20089;-79
2023/12/04 11:28:29;;;;;;;14.48;13.15;;;2.10;99.90;;;;;;4961291;28;20042;-77
2023/12/04 11:30:59;;;;;;;14.80;13.40;;;2.10;99.90;;;;;;4961277;28;20046;-77
2023/12/04 11:33:30;;;;;;;15.00;13.50;;;2.20;99.90;;;;;;4961581;28;20049;-77
2023/12/04 11:36:12;;;;;;;11.90;6.38;;;2.20;99.90;;;;;;4961015;28;20108;-78
2023/12/04 11:39:09;;;;;;;14.25;12.95;;;2.20;99.90;;;;;;4961362;28;20093;-78
2023/12/04 11:41:47;;;;;;;14.40;13.10;;;2.20;99.90;;;;;;4960956;28;20540;-78
2023/12/04 11:44:24;;;;;;;14.77;13.38;;;2.20;99.90;;;;;;4976050;28;20093;-78
2023/12/04 11:47:05;;;;;;;13.73;12.52;;;2.20;99.90;;;;;;4960861;28;20076;-78
2023/12/04 11:49:32;;;;;;;13.57;12.32;;;2.30;99.90;;;;;;4961089;28;20041;-77
2023/12/04 11:52:13;;;;;;;13.50;12.30;;;2.30;99.90;;;;;;4960454;28;20046;-78
2023/12/04 11:55:21;;;;;;;15.45;14.10;;;2.30;99.90;;;;;;4961308;28;20049;-78
2023/12/04 11:57:57;;;;;;;13.60;12.23;;;2.40;99.90;;;;;;4883578;29;20452;-77
2023/12/04 12:00:35;;;;;;;14.20;12.93;;;2.40;99.90;;;;;;4888746;28;20040;-77
2023/12/04 12:03:09;;;;;;;14.50;13.13;;;2.50;99.90;;;;;;4961969;28;20046;-78
2023/12/04 12:05:49;;;;;;;13.35;12.15;;;2.50;99.90;;;;;;4962838;28;20069;-78
2023/12/04 12:08:21;;;;;;;13.43;12.23;;;2.60;99.90;;;;;;4962155;28;20393;-78
2023/12/04 12:10:52;;;;;;;13.70;12.40;;;2.60;99.90;;;;;;4961794;28;20040;-78
2023/12/04 12:13:27;;;;;;;13.02;11.73;;;2.60;99.90;;;;;;4961837;28;20053;-78
2023/12/04 12:15:58;;;;;;;14.05;12.75;;;2.60;99.90;;;;;;4961139;28;20043;-78
2023/12/04 12:19:02;;;;;;;13.77;12.48;;;2.60;99.90;;;;;;4961490;28;20420;-78
2023/12/04 12:21:35;;;;;;;13.80;12.60;;;2.60;99.90;;;;;;4961947;28;20038;-78
2023/12/04 12:24:11;;;;;;;14.13;12.82;;;2.50;99.90;;;;;;4961860;28;20534;-78
2023/12/04 12:26:39;;;;;;;13.07;11.98;;;2.50;99.90;;;;;;4962140;28;20046;-78
2023/12/04 12:29:14;;;;;;;13.13;11.93;;;2.50;99.90;;;;;;4962402;28;20405;-78
2023/12/04 12:31:46;;;;;;;11.82;10.73;;;2.50;99.90;;;;;;4961963;28;20050;-78
2023/12/04 12:34:27;;;;;;;12.50;11.40;;;2.40;99.90;;;;;;4961461;28;20038;-78
2023/12/04 12:36:58;;;;;;;13.70;12.40;;;2.40;99.90;;;;;;4961664;28;20048;-78
2023/12/04 12:39:30;;;;;;;14.20;12.82;;;2.40;99.90;;;;;;4961849;28;20045;-78
2023/12/04 12:42:04;;;;;;;13.63;12.32;;;2.40;99.90;;;;;;4961379;28;20456;-78
2023/12/04 12:44:40;;;;;;;13.05;11.85;;;2.40;99.90;;;;;;4958493;28;20052;-78
2023/12/04 12:47:09;;;;;;;12.70;11.50;;;2.40;99.90;;;;;;4961200;28;20038;-77
2023/12/04 12:49:37;;;;;;;11.40;10.40;;;2.40;99.90;;;;;;4960880;28;20133;-78
2023/12/04 12:52:09;;;;;;;12.90;11.70;;;2.50;99.90;;;;;;4962042;28;20081;-78